createdAt,value
2023-04-29T00:06:18.778Z,20
2023-04-29T00:16:19.032Z,20.2
2023-04-29T00:26:19.565Z,20.2
2023-04-29T00:36:20.089Z,20.1
2023-04-29T00:46:20.133Z,19.9
2023-04-29T00:56:19.662Z,20
2023-04-29T01:06:19.538Z,20.1
2023-04-29T01:16:19.558Z,19.9
2023-04-29T01:26:19.693Z,20
2023-04-29T01:36:19.988Z,19.9
2023-04-29T01:46:20.250Z,19.8
2023-04-29T01:56:20.550Z,19.9
2023-04-29T02:06:20.542Z,19.9
2023-04-29T02:16:21.235Z,19.8
2023-04-29T02:26:21.024Z,19.7
2023-04-29T02:36:21.610Z,19.9
2023-04-29T02:46:22.263Z,19.7
2023-04-29T02:56:22.493Z,19.8
2023-04-29T03:06:07.827Z,19.9
2023-04-29T03:16:08.304Z,19.6
2023-04-29T03:26:08.673Z,19.8
2023-04-29T03:36:08.275Z,19.9
2023-04-29T03:46:09.081Z,19.9
2023-04-29T03:56:09.618Z,19.8
2023-04-29T04:06:10.251Z,19.6
2023-04-29T04:16:11.956Z,19.8
2023-04-29T04:26:14.215Z,19.6
2023-04-29T04:36:16.969Z,19.8
2023-04-29T04:46:18.830Z,19.8
2023-04-29T04:56:24.386Z,19.9
2023-04-29T05:06:24.863Z,19.8
2023-04-29T05:16:30.856Z,19.8
2023-04-29T05:26:38.352Z,19.5
2023-04-29T05:36:45.547Z,19.9
2023-04-29T05:46:54.731Z,19.8
2023-04-29T05:57:07.354Z,19.5
2023-04-29T06:07:21.957Z,19.3
2023-04-29T06:17:38.225Z,19.5
2023-04-29T06:27:55.066Z,19.2
2023-04-29T06:38:11.773Z,19.4
2023-04-29T06:48:27.473Z,19.7
2023-04-29T06:58:45.118Z,18.4
2023-04-29T07:09:03.261Z,18.8
2023-04-29T07:19:21.111Z,19.2
2023-04-29T07:29:40.109Z,19.9
2023-04-29T07:39:55.527Z,20.3
2023-04-29T07:50:09.579Z,20.6
2023-04-29T08:00:23.675Z,20.2
2023-04-29T08:10:38.052Z,20.3
2023-04-29T08:20:52.970Z,20.9
2023-04-29T08:31:12.958Z,19.4
2023-04-29T08:41:33.231Z,18.8
2023-04-29T08:51:49.841Z,20.4
2023-04-29T09:06:18.017Z,20.4
2023-04-29T09:16:37.713Z,20.2
2023-04-29T09:26:57.492Z,20.2
2023-04-29T09:37:16.797Z,20.3
2023-04-29T09:47:36.647Z,20.5
2023-04-29T09:57:56.072Z,20.4
2023-04-29T10:08:17.011Z,20.5
2023-04-29T10:18:38.110Z,20.8
2023-04-29T10:28:57.977Z,20.4
2023-04-29T10:39:18.786Z,20.4
2023-04-29T10:49:39.443Z,20.4
2023-04-29T10:59:57.794Z,20.1
2023-04-29T11:10:11.225Z,20.6
2023-04-29T11:20:26.615Z,19.9
2023-04-29T11:30:36.057Z,20.4
2023-04-29T11:40:47.881Z,20.2
2023-04-29T11:50:53.974Z,20.3
2023-04-29T12:00:56.365Z,20.3
2023-04-29T12:10:55.658Z,20.4
2023-04-29T12:20:54.881Z,20.4
2023-04-29T12:30:55.043Z,20.4
2023-04-29T12:40:55.853Z,20.4
2023-04-29T12:51:00.137Z,20.5
2023-04-29T13:01:05.100Z,20.9
2023-04-29T13:11:10.895Z,20.6
2023-04-29T13:21:17.008Z,20
2023-04-29T13:31:23.011Z,20.5
2023-04-29T13:41:28.776Z,20.5
2023-04-29T13:52:10.595Z,20.5
2023-04-29T14:11:45.439Z,20.6
2023-04-29T14:21:54.383Z,20.4
2023-04-29T14:31:56.582Z,20.2
2023-04-29T14:41:59.111Z,20.5
2023-04-29T14:52:03.550Z,20.4
2023-04-29T15:06:10.790Z,20.3
2023-04-29T15:16:13.136Z,20.2
2023-04-29T15:26:15.636Z,20.4
2023-04-29T15:36:18.403Z,20.1
2023-04-29T15:46:18.834Z,20.3
2023-04-29T15:56:20.417Z,20.1
2023-04-29T16:06:22.089Z,20.3
2023-04-29T16:16:24.442Z,20.5
2023-04-29T16:26:26.837Z,20.5
2023-04-29T16:36:28.013Z,20.1
2023-04-29T16:46:30.698Z,20.3
2023-04-29T16:56:32.198Z,20.4
2023-04-29T17:06:32.443Z,20.3
2023-04-29T17:16:32.148Z,20.3
2023-04-29T17:26:32.245Z,20.4
2023-04-29T17:36:31.889Z,20.4
2023-04-29T17:46:31.878Z,20.1
2023-04-29T17:56:31.762Z,20.3
2023-04-29T18:06:31.921Z,20.3
2023-04-29T18:16:31.646Z,20.3
2023-04-29T18:26:31.076Z,20.3
2023-04-29T18:36:30.862Z,20.3
2023-04-29T18:46:30.684Z,20.3
2023-04-29T18:56:30.582Z,20.3
2023-04-29T19:06:30.366Z,20.3
2023-04-29T19:16:30.077Z,20.2
2023-04-29T19:26:31.133Z,20.3
2023-04-29T19:36:30.144Z,20.4
2023-04-29T19:46:30.277Z,19.9
2023-04-29T19:56:30.303Z,20.3
2023-04-29T20:06:30.094Z,20.5
2023-04-29T20:16:29.784Z,20.3
2023-04-29T20:26:29.818Z,20.3
2023-04-29T20:36:30.236Z,20.4
2023-04-29T20:46:30.664Z,20.4
2023-04-29T20:56:30.624Z,20.3
2023-04-29T21:06:08.941Z,20.1
2023-04-29T21:16:09.074Z,20.1
2023-04-29T21:26:09.322Z,20.1
2023-04-29T21:36:09.995Z,20.1
2023-04-29T21:46:10.338Z,20.1
2023-04-29T21:56:10.724Z,20.1
2023-04-29T22:06:12.693Z,20.3
2023-04-29T22:16:13.682Z,20.1
2023-04-29T22:26:15.386Z,20.1
2023-04-29T22:36:17.190Z,20
2023-04-29T22:46:18.246Z,20.2
2023-04-29T22:56:19.999Z,20.1
2023-04-29T23:06:20.497Z,20.1
2023-04-29T23:16:20.274Z,20.2
2023-04-29T23:26:20.265Z,20.2
2023-04-29T23:36:19.929Z,20.1
2023-04-29T23:46:20.059Z,20.1
2023-04-29T23:56:20.745Z,20
